createdAt,value
2018-10-09T00:00:39.833Z,101570.15
2018-10-09T00:03:43.903Z,101581.23
2018-10-09T00:06:48.188Z,101583.05
2018-10-09T00:09:52.120Z,101583.89
2018-10-09T00:12:56.060Z,101586.90
2018-10-09T00:15:59.971Z,101588.63
2018-10-09T00:19:04.204Z,101594.31
2018-10-09T00:22:08.157Z,101599.52
2018-10-09T00:25:12.078Z,101600.85
2018-10-09T00:28:16.011Z,101608.19
2018-10-09T00:31:20.162Z,101608.23
2018-10-09T00:34:24.415Z,101600.99
2018-10-09T00:37:28.350Z,101599.80
2018-10-09T00:40:32.624Z,101593.75
2018-10-09T00:43:36.790Z,101583.59
2018-10-09T00:46:40.706Z,101587.04
2018-10-09T00:49:44.840Z,101583.21
2018-10-09T00:52:48.757Z,101575.97
2018-10-09T00:55:52.866Z,101575.62
2018-10-09T00:58:57.338Z,101577.78
2018-10-09T01:02:01.253Z,101573.02
2018-10-09T01:05:05.186Z,101578.22
2018-10-09T01:08:09.641Z,101584.27
2018-10-09T01:11:13.570Z,101590.70
2018-10-09T01:14:17.624Z,101589.87
2018-10-09T01:17:22.250Z,101586.91
2018-10-09T01:20:31.288Z,101588.59
2018-10-09T01:23:35.717Z,101579.63
2018-10-09T01:26:39.658Z,101570.72
2018-10-09T01:29:43.822Z,101576.85
2018-10-09T01:32:47.740Z,101571.75
2018-10-09T01:35:51.638Z,101575.63
2018-10-09T01:38:55.985Z,101582.43
2018-10-09T01:41:59.927Z,101573.08
2018-10-09T01:45:04.189Z,101575.20
2018-10-09T01:48:08.105Z,101581.63
2018-10-09T01:51:12.005Z,101579.91
2018-10-09T01:54:16.129Z,101579.47
2018-10-09T01:57:20.395Z,101584.15
2018-10-09T02:00:24.649Z,101567.95
2018-10-09T02:03:28.595Z,101567.60
2018-10-09T02:06:32.861Z,101562.44
2018-10-09T02:09:36.822Z,101563.72
2018-10-09T02:12:41.093Z,101555.16
2018-10-09T02:15:45.227Z,101551.37
2018-10-09T02:18:49.355Z,101540.33
2018-10-09T02:21:53.286Z,101541.09
2018-10-09T02:24:57.218Z,101550.88
2018-10-09T02:28:01.145Z,101539.36
2018-10-09T02:31:05.282Z,101535.66
2018-10-09T02:34:09.417Z,101534.86
2018-10-09T02:37:13.361Z,101527.58
2018-10-09T02:40:17.332Z,101522.77
2018-10-09T02:43:21.286Z,101533.14
2018-10-09T02:46:25.226Z,101539.14
2018-10-09T02:49:29.133Z,101540.81
2018-10-09T02:52:33.257Z,101534.46
2018-10-09T02:55:37.371Z,101533.98
2018-10-09T02:58:41.303Z,101527.23
2018-10-09T03:01:45.210Z,101530.67
2018-10-09T03:04:49.111Z,101538.92
2018-10-09T03:07:53.306Z,101544.12
2018-10-09T03:10:57.251Z,101548.40
2018-10-09T03:14:01.190Z,101551.40
2018-10-09T03:17:05.117Z,101550.69
2018-10-09T03:20:10.862Z,101547.86
2018-10-09T03:23:14.975Z,101549.19
2018-10-09T03:26:19.245Z,101534.76
2018-10-09T03:29:23.169Z,101535.59
2018-10-09T03:32:27.098Z,101529.69
2018-10-09T03:35:31.223Z,101524.13
2018-10-09T03:38:35.406Z,101526.94
2018-10-09T03:41:39.652Z,101532.81
2018-10-09T03:44:43.568Z,101527.90
2018-10-09T03:47:47.530Z,101517.72
2018-10-09T03:50:51.463Z,101521.95
2018-10-09T03:53:55.386Z,101531.34
2018-10-09T03:56:59.296Z,101542.09
2018-10-09T04:00:03.426Z,101560.06
2018-10-09T04:03:07.695Z,101560.46
2018-10-09T04:06:11.630Z,101560.98
2018-10-09T04:09:15.659Z,101555.51
2018-10-09T04:12:19.721Z,101551.71
2018-10-09T04:15:23.984Z,101549.63
2018-10-09T04:18:27.899Z,101558.14
2018-10-09T04:21:31.843Z,101557.73
2018-10-09T04:24:35.772Z,101559.42
2018-10-09T04:27:39.708Z,101562.89
2018-10-09T04:30:43.643Z,101557.34
2018-10-09T04:33:47.742Z,101557.22
2018-10-09T04:36:51.699Z,101558.30
2018-10-09T04:39:55.826Z,101550.74
2018-10-09T04:42:59.770Z,101551.66
2018-10-09T04:46:03.686Z,101543.88
2018-10-09T04:49:07.631Z,101552.89
2018-10-09T04:52:11.579Z,101552.17
2018-10-09T04:55:15.510Z,101556.84
2018-10-09T04:58:19.430Z,101550.42
2018-10-09T05:01:23.379Z,101549.02
2018-10-09T05:04:27.323Z,101541.87
2018-10-09T05:07:31.458Z,101545.27
2018-10-09T05:10:35.394Z,101537.16
2018-10-09T05:13:39.331Z,101543.11
2018-10-09T05:16:43.513Z,101536.69
2018-10-09T05:19:47.418Z,101540.88
2018-10-09T05:22:52.631Z,101534.56
2018-10-09T05:25:56.617Z,101529.10
2018-10-09T05:29:00.562Z,101529.02
2018-10-09T05:32:04.676Z,101537.92
2018-10-09T05:35:08.797Z,101543.03
2018-10-09T05:38:12.933Z,101549.42
2018-10-09T05:41:16.863Z,101556.66
2018-10-09T05:44:20.888Z,101561.29
2018-10-09T05:47:25.193Z,101560.89
2018-10-09T05:50:29.119Z,101565.60
2018-10-09T05:53:33.259Z,101568.23
2018-10-09T05:56:37.205Z,101567.06
2018-10-09T05:59:41.122Z,101558.09
2018-10-09T06:02:45.238Z,101553.38
2018-10-09T06:05:49.172Z,101556.88
2018-10-09T06:08:53.326Z,101559.72
2018-10-09T06:11:57.250Z,101566.08
2018-10-09T06:15:01.182Z,101558.92
2018-10-09T06:18:05.623Z,101557.20
2018-10-09T06:21:09.541Z,101560.64
2018-10-09T06:24:13.474Z,101571.66
2018-10-09T06:27:17.446Z,101581.84
2018-10-09T06:30:21.350Z,101586.09
2018-10-09T06:33:25.606Z,101584.33
2018-10-09T06:36:29.735Z,101592.87
2018-10-09T06:39:33.997Z,101601.27
2018-10-09T06:42:38.121Z,101611.13
2018-10-09T06:45:42.253Z,101622.67
2018-10-09T06:48:47.054Z,101617.45
2018-10-09T06:51:51.186Z,101617.56
2018-10-09T06:54:55.494Z,101625.19
2018-10-09T06:57:59.885Z,101620.95
2018-10-09T07:01:04.360Z,101618.32
2018-10-09T07:04:08.281Z,101616.49
2018-10-09T07:07:12.198Z,101622.30
2018-10-09T07:10:16.139Z,101619.55
2018-10-09T07:13:20.521Z,101619.27
2018-10-09T07:16:24.770Z,101624.59
2018-10-09T07:19:28.762Z,101626.47
2018-10-09T07:22:32.688Z,101621.52
2018-10-09T07:25:36.620Z,101629.38
2018-10-09T07:28:40.860Z,101639.43
2018-10-09T07:31:44.790Z,101648.17
2018-10-09T07:34:48.733Z,101650.92
2018-10-09T07:37:52.626Z,101654.09
2018-10-09T07:40:56.581Z,101643.58
2018-10-09T07:44:00.540Z,101648.47
2018-10-09T07:47:04.956Z,101644.37
2018-10-09T07:50:08.871Z,101653.89
2018-10-09T07:53:12.795Z,101658.73
2018-10-09T07:56:16.707Z,101664.41
2018-10-09T07:59:20.987Z,101670.08
2018-10-09T08:02:25.236Z,101674.45
2018-10-09T08:05:29.175Z,101672.42
2018-10-09T08:08:33.087Z,101672.95
2018-10-09T08:11:36.995Z,101671.31
2018-10-09T08:14:40.955Z,101671.33
2018-10-09T08:17:44.880Z,101673.58
2018-10-09T08:20:48.830Z,101670.71
2018-10-09T08:23:52.758Z,101672.05
2018-10-09T08:26:56.678Z,101664.45
2018-10-09T08:30:00.600Z,101669.25
2018-10-09T08:33:05.039Z,101670.23
2018-10-09T08:36:08.979Z,101664.32
2018-10-09T08:39:12.925Z,101664.02
2018-10-09T08:42:16.850Z,101662.03
2018-10-09T08:45:20.799Z,101660.05
2018-10-09T08:48:24.708Z,101658.06
2018-10-09T08:51:28.638Z,101665.09
2018-10-09T08:54:32.578Z,101668.25
2018-10-09T08:57:36.515Z,101672.68
2018-10-09T09:00:40.443Z,101670.77
2018-10-09T09:03:44.391Z,101677.33
2018-10-09T09:06:48.330Z,101680.94
2018-10-09T09:09:52.246Z,101673.85
2018-10-09T09:12:56.244Z,101678.73
2018-10-09T09:16:00.195Z,101679.71
2018-10-09T09:19:04.551Z,101679.08
2018-10-09T09:22:09.062Z,101681.37
2018-10-09T09:25:13.026Z,101679.39
2018-10-09T09:28:16.964Z,101678.72
2018-10-09T09:31:21.222Z,101675.05
2018-10-09T09:34:25.270Z,101668.39
2018-10-09T09:37:29.558Z,101670.26
2018-10-09T09:40:33.619Z,101667.52
2018-10-09T09:43:37.561Z,101669.84
2018-10-09T09:46:41.486Z,101670.58
2018-10-09T09:49:45.425Z,101673.34
2018-10-09T09:52:49.710Z,101671.05
2018-10-09T09:55:53.676Z,101681.16
2018-10-09T09:58:57.768Z,101676.67
2018-10-09T10:02:02.083Z,101680.79
2018-10-09T10:05:06.035Z,101679.75
2018-10-09T10:08:10.008Z,101688.54
2018-10-09T10:11:13.926Z,101688.02
2018-10-09T10:14:17.858Z,101685.69
2018-10-09T10:17:21.790Z,101689.84
2018-10-09T10:20:26.063Z,101681.90
2018-10-09T10:23:30.005Z,101677.79
2018-10-09T10:26:34.487Z,101680.23
2018-10-09T10:29:38.414Z,101682.50
2018-10-09T10:32:42.678Z,101684.03
2018-10-09T10:35:46.701Z,101679.12
2018-10-09T10:38:51.334Z,101681.97
2018-10-09T10:41:55.299Z,101676.53
2018-10-09T10:44:59.403Z,101681.47
2018-10-09T10:48:03.655Z,101689.77
2018-10-09T10:51:07.582Z,101692.16
2018-10-09T10:54:11.518Z,101689.36
2018-10-09T10:57:15.791Z,101683.19
2018-10-09T11:00:20.044Z,101687.60
2018-10-09T11:03:23.985Z,101685.67
2018-10-09T11:06:27.894Z,101681.13
2018-10-09T11:09:42.890Z,101674.52
2018-10-09T11:12:46.843Z,101680.34
2018-10-09T11:15:50.782Z,101681.48
2018-10-09T11:18:54.734Z,101686.45
2018-10-09T11:21:58.661Z,101687.21
2018-10-09T11:25:02.950Z,101686.16
2018-10-09T11:28:07.155Z,101682.13
2018-10-09T11:31:11.078Z,101676.47
2018-10-09T11:34:15.016Z,101675.03
2018-10-09T11:37:18.954Z,101673.13
2018-10-09T11:40:23.226Z,101662.27
2018-10-09T11:43:27.143Z,101658.73
2018-10-09T11:46:31.414Z,101653.03
2018-10-09T11:49:35.326Z,101650.75
2018-10-09T11:52:39.278Z,101652.73
2018-10-09T11:55:43.198Z,101649.19
2018-10-09T11:58:47.192Z,101645.23
2018-10-09T12:01:51.242Z,101645.16
2018-10-09T12:04:55.378Z,101644.16
2018-10-09T12:07:59.329Z,101645.00
2018-10-09T12:11:03.276Z,101641.80
2018-10-09T12:14:07.201Z,101641.80
2018-10-09T12:17:11.478Z,101642.14
2018-10-09T12:20:16.071Z,101639.48
2018-10-09T12:23:20.211Z,101633.77
2018-10-09T12:26:24.462Z,101636.66
2018-10-09T12:29:28.735Z,101636.13
2018-10-09T12:32:32.989Z,101630.45
2018-10-09T12:35:36.930Z,101625.58
2018-10-09T12:38:40.881Z,101628.46
2018-10-09T12:41:44.802Z,101635.68
2018-10-09T12:44:48.834Z,101632.94
2018-10-09T12:47:53.118Z,101631.92
2018-10-09T12:50:57.267Z,101622.72
2018-10-09T12:54:01.578Z,101614.75
2018-10-09T12:57:05.536Z,101618.02
2018-10-09T13:00:09.680Z,101614.80
2018-10-09T13:03:13.683Z,101614.59
2018-10-09T13:06:17.793Z,101619.14
2018-10-09T13:09:21.735Z,101615.02
2018-10-09T13:12:25.848Z,101613.13
2018-10-09T13:15:29.789Z,101615.02
2018-10-09T13:18:33.924Z,101617.76
2018-10-09T13:21:38.871Z,101614.92
2018-10-09T13:24:42.814Z,101613.84
2018-10-09T13:27:46.980Z,101608.45
2018-10-09T13:30:50.938Z,101611.23
2018-10-09T13:33:55.034Z,101609.72
2018-10-09T13:36:59.156Z,101617.14
2018-10-09T13:40:03.090Z,101613.93
2018-10-09T13:43:07.194Z,101614.17
2018-10-09T13:46:11.127Z,101612.70
2018-10-09T13:49:15.379Z,101607.44
2018-10-09T13:52:19.327Z,101602.55
2018-10-09T13:55:23.443Z,101599.08
2018-10-09T13:58:27.743Z,101596.86
2018-10-09T14:01:31.695Z,101592.43
2018-10-09T14:04:35.687Z,101585.41
2018-10-09T14:07:39.613Z,101591.34
2018-10-09T14:10:43.738Z,101585.61
2018-10-09T14:13:47.663Z,101578.91
2018-10-09T14:16:51.590Z,101580.03
2018-10-09T14:19:55.539Z,101574.30
2018-10-09T14:22:59.869Z,101576.29
2018-10-09T14:26:03.928Z,101567.05
2018-10-09T14:29:07.847Z,101574.64
2018-10-09T14:32:11.786Z,101575.41
2018-10-09T14:35:15.762Z,101576.56
2018-10-09T14:38:19.698Z,101573.89
2018-10-09T14:41:23.646Z,101575.46
2018-10-09T14:44:27.588Z,101563.72
2018-10-09T14:47:31.561Z,101564.55
2018-10-09T14:50:35.703Z,101565.84
2018-10-09T14:53:39.892Z,101563.62
2018-10-09T14:56:43.820Z,101575.28
2018-10-09T14:59:47.762Z,101567.52
2018-10-09T15:02:51.724Z,101565.30
2018-10-09T15:05:55.664Z,101561.41
2018-10-09T15:08:59.783Z,101576.12
2018-10-09T15:12:04.075Z,101573.91
2018-10-09T15:15:08.254Z,101583.80
2018-10-09T15:18:12.177Z,101585.92
2018-10-09T15:21:16.444Z,101586.39
2018-10-09T15:24:20.398Z,101587.31
2018-10-09T15:27:24.707Z,101596.37
2018-10-09T15:30:28.662Z,101595.55
2018-10-09T15:33:32.608Z,101602.94
2018-10-09T15:36:36.863Z,101597.94
2018-10-09T15:39:40.808Z,101594.60
2018-10-09T15:42:44.738Z,101594.69
2018-10-09T15:45:48.687Z,101600.84
2018-10-09T15:48:52.644Z,101596.73
2018-10-09T15:51:56.601Z,101591.27
2018-10-09T15:55:00.527Z,101592.80
2018-10-09T15:58:04.796Z,101593.44
2018-10-09T16:01:08.964Z,101590.73
2018-10-09T16:04:12.919Z,101597.34
2018-10-09T16:07:17.078Z,101601.12
2018-10-09T16:10:21.023Z,101603.09
2018-10-09T16:13:24.985Z,101602.89
2018-10-09T16:16:28.909Z,101603.20
2018-10-09T16:19:32.820Z,101599.66
2018-10-09T16:22:36.738Z,101599.14
2018-10-09T16:25:40.758Z,101600.31
2018-10-09T16:28:45.002Z,101604.50
2018-10-09T16:31:49.301Z,101603.16
2018-10-09T16:34:53.226Z,101603.92
2018-10-09T16:37:57.171Z,101603.84
2018-10-09T16:41:01.126Z,101605.55
2018-10-09T16:44:05.262Z,101611.47
2018-10-09T16:47:09.258Z,101607.96
2018-10-09T16:50:13.339Z,101610.08
2018-10-09T16:53:17.400Z,101606.13
2018-10-09T16:56:21.495Z,101611.20
2018-10-09T16:59:25.422Z,101620.09
2018-10-09T17:02:29.338Z,101618.25
2018-10-09T17:05:33.284Z,101613.48
2018-10-09T17:08:37.254Z,101621.05
2018-10-09T17:11:41.934Z,101616.16
2018-10-09T17:14:46.316Z,101626.80
2018-10-09T17:17:50.263Z,101624.56
2018-10-09T17:20:54.189Z,101624.08
2018-10-09T17:23:58.441Z,101630.84
2018-10-09T17:27:02.368Z,101626.47
2018-10-09T17:30:07.455Z,101627.72
2018-10-09T17:33:11.796Z,101630.74
2018-10-09T17:36:15.995Z,101630.70
2018-10-09T17:39:20.047Z,101628.45
2018-10-09T17:42:24.090Z,101636.94
2018-10-09T17:45:28.103Z,101635.17
2018-10-09T17:48:32.269Z,101640.58
2018-10-09T17:51:36.373Z,101642.19
2018-10-09T17:54:40.289Z,101641.62
2018-10-09T17:57:44.227Z,101650.52
2018-10-09T18:00:48.182Z,101656.39
2018-10-09T18:03:52.377Z,101655.80
2018-10-09T18:06:56.306Z,101653.08
2018-10-09T18:10:00.247Z,101659.34
2018-10-09T18:13:04.623Z,101660.86
2018-10-09T18:16:09.010Z,101660.30
2018-10-09T18:19:14.324Z,101654.98
2018-10-09T18:22:18.253Z,101667.23
2018-10-09T18:25:22.178Z,101665.33
2018-10-09T18:28:26.114Z,101663.41
2018-10-09T18:31:30.194Z,101656.35
2018-10-09T18:34:34.134Z,101653.62
2018-10-09T18:37:38.079Z,101658.51
2018-10-09T18:40:42.126Z,101656.16
2018-10-09T18:43:46.228Z,101652.55
2018-10-09T18:46:50.398Z,101654.56
2018-10-09T18:49:54.325Z,101652.20
2018-10-09T18:52:58.269Z,101651.91
2018-10-09T18:56:18.701Z,101652.04
2018-10-09T18:59:26.343Z,101649.92
2018-10-09T19:02:30.479Z,101651.75
2018-10-09T19:05:34.410Z,101651.66
2018-10-09T19:08:38.328Z,101647.12
2018-10-09T19:11:42.247Z,101646.40
2018-10-09T19:14:46.179Z,101650.02
2018-10-09T19:18:05.490Z,101645.55
2018-10-09T19:21:11.574Z,101653.41
2018-10-09T19:24:15.551Z,101648.95
2018-10-09T19:27:19.564Z,101646.52
2018-10-09T19:30:23.676Z,101645.41
2018-10-09T19:33:27.597Z,101646.87
2018-10-09T19:36:31.513Z,101647.95
2018-10-09T19:39:35.434Z,101649.24
2018-10-09T19:42:39.563Z,101643.91
2018-10-09T19:45:43.815Z,101646.31
2018-10-09T19:48:47.748Z,101646.39
2018-10-09T19:51:51.690Z,101648.68
2018-10-09T19:54:55.842Z,101647.14
2018-10-09T19:57:59.890Z,101649.88
2018-10-09T20:01:04.210Z,101650.48
2018-10-09T20:04:08.317Z,101651.40
2018-10-09T20:07:12.273Z,101646.87
2018-10-09T20:10:16.260Z,101657.14
2018-10-09T20:13:20.534Z,101657.33
2018-10-09T20:16:24.803Z,101672.39
2018-10-09T20:19:28.748Z,101666.47
2018-10-09T20:22:33.041Z,101668.88
2018-10-09T20:25:37.338Z,101668.43
2018-10-09T20:28:41.335Z,101671.94
2018-10-09T20:31:45.607Z,101672.48
2018-10-09T20:34:49.785Z,101673.91
2018-10-09T20:37:53.781Z,101682.27
2018-10-09T20:40:57.742Z,101675.97
2018-10-09T20:44:01.785Z,101687.02
2018-10-09T20:47:06.189Z,101686.73
2018-10-09T20:50:10.179Z,101684.31
2018-10-09T20:53:14.102Z,101686.90
2018-10-09T20:56:18.071Z,101688.33
2018-10-09T20:59:21.991Z,101685.05
2018-10-09T21:02:25.946Z,101683.02
2018-10-09T21:05:30.265Z,101686.47
2018-10-09T21:08:34.386Z,101690.13
2018-10-09T21:11:38.335Z,101694.03
2018-10-09T21:14:42.266Z,101697.48
2018-10-09T21:17:46.281Z,101696.25
2018-10-09T21:20:50.348Z,101699.36
2018-10-09T21:23:54.280Z,101699.80
2018-10-09T21:26:58.237Z,101696.11
2018-10-09T21:30:02.399Z,101697.98
2018-10-09T21:33:06.547Z,101693.35
2018-10-09T21:36:10.534Z,101693.35
2018-10-09T21:39:14.474Z,101695.17
2018-10-09T21:42:18.602Z,101695.72
2018-10-09T21:45:22.579Z,101704.83
2018-10-09T21:48:26.615Z,101704.23
2018-10-09T21:51:30.545Z,101702.80
2018-10-09T21:54:34.462Z,101700.43
2018-10-09T21:57:38.387Z,101695.30
2018-10-09T22:01:17.651Z,101695.05
2018-10-09T22:04:21.930Z,101694.75
2018-10-09T22:07:25.845Z,101698.28
2018-10-09T22:10:29.786Z,101697.98
2018-10-09T22:13:33.753Z,101696.75
2018-10-09T22:16:37.944Z,101688.92
2018-10-09T22:19:41.867Z,101694.19
2018-10-09T22:22:45.809Z,101692.11
2018-10-09T22:25:50.067Z,101693.66
2018-10-09T22:28:54.017Z,101695.47
2018-10-09T22:31:58.021Z,101700.69
2018-10-09T22:35:02.006Z,101696.89
2018-10-09T22:38:06.100Z,101696.36
2018-10-09T22:41:10.370Z,101700.73
2018-10-09T22:44:14.665Z,101702.23
2018-10-09T22:47:18.834Z,101700.23
2018-10-09T22:50:23.110Z,101700.23
2018-10-09T22:53:27.363Z,101700.80
2018-10-09T22:56:31.300Z,101699.25
2018-10-09T22:59:35.239Z,101697.09
2018-10-09T23:02:39.167Z,101706.09
2018-10-09T23:05:43.093Z,101707.94
2018-10-09T23:08:47.331Z,101711.47
2018-10-09T23:11:51.282Z,101711.10
2018-10-09T23:14:55.224Z,101703.50
2018-10-09T23:17:59.178Z,101709.86
2018-10-09T23:21:03.105Z,101709.50
2018-10-09T23:24:07.413Z,101706.16
2018-10-09T23:27:11.726Z,101709.19
2018-10-09T23:30:15.689Z,101705.91
2018-10-09T23:33:19.617Z,101708.39
2018-10-09T23:36:23.563Z,101711.95
2018-10-09T23:39:27.497Z,101711.98
2018-10-09T23:42:31.419Z,101708.70
2018-10-09T23:45:35.898Z,101718.97
2018-10-09T23:48:39.845Z,101713.50
2018-10-09T23:51:43.786Z,101708.05
2018-10-09T23:54:47.738Z,101706.84
2018-10-09T23:57:52.009Z,101705.97
